sensor_id;sensor_type;location;lat;lon;timestamp;temperature;humidity
39665;DHT22;26679;50.872;4.332;2023-08-07T00:02:01;13.70;99.90
39665;DHT22;26679;50.872;4.332;2023-08-07T00:04:27;13.70;99.90
39665;DHT22;26679;50.872;4.332;2023-08-07T00:06:53;13.70;99.90
39665;DHT22;26679;50.872;4.332;2023-08-07T00:09:18;13.70;99.90
39665;DHT22;26679;50.872;4.332;2023-08-07T00:11:44;13.70;99.90
39665;DHT22;26679;50.872;4.332;2023-08-07T00:14:09;13.80;99.90
39665;DHT22;26679;50.872;4.332;2023-08-07T00:16:35;13.90;99.90
39665;DHT22;26679;50.872;4.332;2023-08-07T00:19:01;13.90;99.90
39665;DHT22;26679;50.872;4.332;2023-08-07T00:21:27;13.90;99.90
39665;DHT22;26679;50.872;4.332;2023-08-07T00:23:53;14.00;99.90
39665;DHT22;26679;50.872;4.332;2023-08-07T00:26:20;13.90;99.90
39665;DHT22;26679;50.872;4.332;2023-08-07T00:28:46;13.90;99.90
39665;DHT22;26679;50.872;4.332;2023-08-07T00:31:11;13.90;99.90
39665;DHT22;26679;50.872;4.332;2023-08-07T00:33:37;13.90;99.90
39665;DHT22;26679;50.872;4.332;2023-08-07T00:36:03;13.90;99.90
39665;DHT22;26679;50.872;4.332;2023-08-07T00:38:29;13.90;99.90
39665;DHT22;26679;50.872;4.332;2023-08-07T00:40:54;13.80;99.90
39665;DHT22;26679;50.872;4.332;2023-08-07T00:43:20;13.70;99.90
39665;DHT22;26679;50.872;4.332;2023-08-07T00:45:46;13.70;99.90
39665;DHT22;26679;50.872;4.332;2023-08-07T00:48:11;13.80;99.90
39665;DHT22;26679;50.872;4.332;2023-08-07T00:50:38;13.80;99.90
39665;DHT22;26679;50.872;4.332;2023-08-07T00:53:04;13.70;99.90
39665;DHT22;26679;50.872;4.332;2023-08-07T00:55:29;13.70;99.90
39665;DHT22;26679;50.872;4.332;2023-08-07T00:57:55;13.70;99.90
39665;DHT22;26679;50.872;4.332;2023-08-07T01:00:21;13.60;99.90
39665;DHT22;26679;50.872;4.332;2023-08-07T01:02:47;13.60;99.90
39665;DHT22;26679;50.872;4.332;2023-08-07T01:05:16;13.60;99.90
39665;DHT22;26679;50.872;4.332;2023-08-07T01:07:42;13.40;99.90
39665;DHT22;26679;50.872;4.332;2023-08-07T01:10:07;13.40;99.90
39665;DHT22;26679;50.872;4.332;2023-08-07T01:12:36;13.40;99.90
39665;DHT22;26679;50.872;4.332;2023-08-07T01:15:16;13.40;99.90
39665;DHT22;26679;50.872;4.332;2023-08-07T01:17:44;13.40;99.90
39665;DHT22;26679;50.872;4.332;2023-08-07T01:20:11;13.50;99.90
39665;DHT22;26679;50.872;4.332;2023-08-07T01:22:37;13.50;99.90
39665;DHT22;26679;50.872;4.332;2023-08-07T01:25:02;13.40;99.90
39665;DHT22;26679;50.872;4.332;2023-08-07T01:33:22;13.40;99.90
39665;DHT22;26679;50.872;4.332;2023-08-07T01:35:27;13.40;99.90
39665;DHT22;26679;50.872;4.332;2023-08-07T01:37:56;13.30;99.90
39665;DHT22;26679;50.872;4.332;2023-08-07T01:40:22;13.20;99.90
39665;DHT22;26679;50.872;4.332;2023-08-07T01:42:48;13.20;99.90
39665;DHT22;26679;50.872;4.332;2023-08-07T01:45:21;13.20;99.90
39665;DHT22;26679;50.872;4.332;2023-08-07T01:47:46;13.20;99.90
39665;DHT22;26679;50.872;4.332;2023-08-07T01:50:12;13.30;99.90
39665;DHT22;26679;50.872;4.332;2023-08-07T01:52:37;13.30;99.90
39665;DHT22;26679;50.872;4.332;2023-08-07T01:55:03;13.30;99.90
39665;DHT22;26679;50.872;4.332;2023-08-07T01:57:29;13.30;99.90
39665;DHT22;26679;50.872;4.332;2023-08-07T01:59:57;13.30;99.90
39665;DHT22;26679;50.872;4.332;2023-08-07T02:02:22;13.20;99.90
39665;DHT22;26679;50.872;4.332;2023-08-07T02:04:48;13.30;99.90
39665;DHT22;26679;50.872;4.332;2023-08-07T02:07:14;13.20;99.90
39665;DHT22;26679;50.872;4.332;2023-08-07T02:09:39;13.20;99.90
39665;DHT22;26679;50.872;4.332;2023-08-07T02:12:05;13.10;99.90
39665;DHT22;26679;50.872;4.332;2023-08-07T02:14:31;13.00;99.90
39665;DHT22;26679;50.872;4.332;2023-08-07T02:16:56;13.00;99.90
39665;DHT22;26679;50.872;4.332;2023-08-07T02:19:22;13.00;99.90
39665;DHT22;26679;50.872;4.332;2023-08-07T02:21:47;12.90;99.90
39665;DHT22;26679;50.872;4.332;2023-08-07T02:24:13;12.90;99.90
39665;DHT22;26679;50.872;4.332;2023-08-07T02:26:39;12.90;99.90
39665;DHT22;26679;50.872;4.332;2023-08-07T02:29:04;13.00;99.90
39665;DHT22;26679;50.872;4.332;2023-08-07T02:31:32;13.00;99.90
39665;DHT22;26679;50.872;4.332;2023-08-07T02:33:58;13.00;99.90
39665;DHT22;26679;50.872;4.332;2023-08-07T02:36:23;12.90;99.90
39665;DHT22;26679;50.872;4.332;2023-08-07T02:38:49;12.90;99.90
39665;DHT22;26679;50.872;4.332;2023-08-07T02:41:14;12.70;99.90
39665;DHT22;26679;50.872;4.332;2023-08-07T02:43:40;12.80;99.90
39665;DHT22;26679;50.872;4.332;2023-08-07T02:46:05;12.80;99.90
39665;DHT22;26679;50.872;4.332;2023-08-07T02:48:31;12.80;99.90
39665;DHT22;26679;50.872;4.332;2023-08-07T02:50:56;12.70;99.90
39665;DHT22;26679;50.872;4.332;2023-08-07T02:53:22;12.80;99.90
39665;DHT22;26679;50.872;4.332;2023-08-07T02:55:47;12.70;99.90
39665;DHT22;26679;50.872;4.332;2023-08-07T02:58:13;12.80;99.90
39665;DHT22;26679;50.872;4.332;2023-08-07T03:00:38;12.80;99.90
39665;DHT22;26679;50.872;4.332;2023-08-07T03:03:04;12.80;99.90
39665;DHT22;26679;50.872;4.332;2023-08-07T03:05:29;12.90;99.90
39665;DHT22;26679;50.872;4.332;2023-08-07T03:07:55;12.80;99.90
39665;DHT22;26679;50.872;4.332;2023-08-07T03:10:20;12.80;99.90
39665;DHT22;26679;50.872;4.332;2023-08-07T03:12:46;12.80;99.90
39665;DHT22;26679;50.872;4.332;2023-08-07T03:15:11;12.80;99.90
39665;DHT22;26679;50.872;4.332;2023-08-07T03:17:37;12.70;99.90
39665;DHT22;26679;50.872;4.332;2023-08-07T03:20:03;12.70;99.90
39665;DHT22;26679;50.872;4.332;2023-08-07T03:22:31;12.70;99.90
39665;DHT22;26679;50.872;4.332;2023-08-07T03:24:57;12.70;99.90
39665;DHT22;26679;50.872;4.332;2023-08-07T03:27:22;12.60;99.90
39665;DHT22;26679;50.872;4.332;2023-08-07T03:29:48;12.60;99.90
39665;DHT22;26679;50.872;4.332;2023-08-07T03:32:13;12.60;99.90
39665;DHT22;26679;50.872;4.332;2023-08-07T03:34:39;12.60;99.90
39665;DHT22;26679;50.872;4.332;2023-08-07T03:37:04;12.60;99.90
39665;DHT22;26679;50.872;4.332;2023-08-07T03:39:30;12.60;99.90
39665;DHT22;26679;50.872;4.332;2023-08-07T03:41:56;12.50;99.90
39665;DHT22;26679;50.872;4.332;2023-08-07T03:44:21;12.60;99.90
39665;DHT22;26679;50.872;4.332;2023-08-07T03:46:47;12.60;99.90
39665;DHT22;26679;50.872;4.332;2023-08-07T03:49:12;12.50;99.90
39665;DHT22;26679;50.872;4.332;2023-08-07T03:51:38;12.50;99.90
39665;DHT22;26679;50.872;4.332;2023-08-07T03:54:03;12.60;99.90
39665;DHT22;26679;50.872;4.332;2023-08-07T03:56:29;12.60;99.90
39665;DHT22;26679;50.872;4.332;2023-08-07T03:59:01;12.50;99.90
39665;DHT22;26679;50.872;4.332;2023-08-07T04:01:27;12.60;99.90
39665;DHT22;26679;50.872;4.332;2023-08-07T04:03:52;12.70;99.90
39665;DHT22;26679;50.872;4.332;2023-08-07T04:06:18;12.70;99.90
39665;DHT22;26679;50.872;4.332;2023-08-07T04:08:49;12.60;99.90
39665;DHT22;26679;50.872;4.332;2023-08-07T04:11:15;12.70;99.90
39665;DHT22;26679;50.872;4.332;2023-08-07T04:13:41;12.60;99.90
39665;DHT22;26679;50.872;4.332;2023-08-07T04:16:06;12.60;99.90
39665;DHT22;26679;50.872;4.332;2023-08-07T04:18:32;12.70;99.90
39665;DHT22;26679;50.872;4.332;2023-08-07T04:20:58;12.60;99.90
39665;DHT22;26679;50.872;4.332;2023-08-07T04:23:25;12.50;99.90
39665;DHT22;26679;50.872;4.332;2023-08-07T04:25:51;12.60;99.90
39665;DHT22;26679;50.872;4.332;2023-08-07T04:28:17;12.60;99.90
39665;DHT22;26679;50.872;4.332;2023-08-07T04:30:43;12.60;99.90
39665;DHT22;26679;50.872;4.332;2023-08-07T04:33:09;12.50;99.90
39665;DHT22;26679;50.872;4.332;2023-08-07T04:35:34;12.50;99.90
39665;DHT22;26679;50.872;4.332;2023-08-07T04:38:00;12.60;99.90
39665;DHT22;26679;50.872;4.332;2023-08-07T04:40:26;12.60;99.90
39665;DHT22;26679;50.872;4.332;2023-08-07T04:42:51;12.80;99.90
39665;DHT22;26679;50.872;4.332;2023-08-07T04:45:17;12.60;99.90
39665;DHT22;26679;50.872;4.332;2023-08-07T04:47:42;12.70;99.90
39665;DHT22;26679;50.872;4.332;2023-08-07T04:50:08;12.60;99.90
39665;DHT22;26679;50.872;4.332;2023-08-07T04:52:34;12.60;99.90
39665;DHT22;26679;50.872;4.332;2023-08-07T04:54:59;12.60;99.90
39665;DHT22;26679;50.872;4.332;2023-08-07T04:57:25;12.70;99.90
39665;DHT22;26679;50.872;4.332;2023-08-07T04:59:51;12.60;99.90
39665;DHT22;26679;50.872;4.332;2023-08-07T05:02:17;12.60;99.90
39665;DHT22;26679;50.872;4.332;2023-08-07T05:04:43;12.70;99.90
39665;DHT22;26679;50.872;4.332;2023-08-07T05:07:08;12.70;99.90
39665;DHT22;26679;50.872;4.332;2023-08-07T05:09:35;12.70;99.90
39665;DHT22;26679;50.872;4.332;2023-08-07T05:12:01;12.60;99.90
39665;DHT22;26679;50.872;4.332;2023-08-07T05:14:26;12.60;99.90
39665;DHT22;26679;50.872;4.332;2023-08-07T05:16:52;12.70;99.90
39665;DHT22;26679;50.872;4.332;2023-08-07T05:19:17;12.80;99.90
39665;DHT22;26679;50.872;4.332;2023-08-07T05:21:43;12.90;99.90
39665;DHT22;26679;50.872;4.332;2023-08-07T05:24:08;13.00;99.90
39665;DHT22;26679;50.872;4.332;2023-08-07T05:26:34;13.00;99.90
39665;DHT22;26679;50.872;4.332;2023-08-07T05:29:00;13.00;99.90
39665;DHT22;26679;50.872;4.332;2023-08-07T05:31:25;13.00;99.90
39665;DHT22;26679;50.872;4.332;2023-08-07T05:33:51;13.10;99.90
39665;DHT22;26679;50.872;4.332;2023-08-07T05:36:16;13.10;99.90
39665;DHT22;26679;50.872;4.332;2023-08-07T05:38:42;13.20;99.90
39665;DHT22;26679;50.872;4.332;2023-08-07T05:41:08;13.30;99.90
39665;DHT22;26679;50.872;4.332;2023-08-07T05:43:34;13.20;99.90
39665;DHT22;26679;50.872;4.332;2023-08-07T05:45:59;13.20;99.90
39665;DHT22;26679;50.872;4.332;2023-08-07T05:48:25;13.30;99.90
39665;DHT22;26679;50.872;4.332;2023-08-07T05:50:51;13.40;99.90
39665;DHT22;26679;50.872;4.332;2023-08-07T05:53:16;13.40;99.90
39665;DHT22;26679;50.872;4.332;2023-08-07T05:55:42;13.40;99.90
39665;DHT22;26679;50.872;4.332;2023-08-07T05:58:07;13.50;99.90
39665;DHT22;26679;50.872;4.332;2023-08-07T06:00:33;13.50;99.90
39665;DHT22;26679;50.872;4.332;2023-08-07T06:02:59;13.50;99.90
39665;DHT22;26679;50.872;4.332;2023-08-07T06:05:24;13.60;99.90
39665;DHT22;26679;50.872;4.332;2023-08-07T06:07:50;13.60;99.90
39665;DHT22;26679;50.872;4.332;2023-08-07T06:10:16;13.70;99.90
39665;DHT22;26679;50.872;4.332;2023-08-07T06:12:42;13.70;99.90
39665;DHT22;26679;50.872;4.332;2023-08-07T06:15:08;13.70;99.90
39665;DHT22;26679;50.872;4.332;2023-08-07T06:17:34;13.70;99.90
39665;DHT22;26679;50.872;4.332;2023-08-07T06:20:01;13.80;99.90
39665;DHT22;26679;50.872;4.332;2023-08-07T06:22:29;13.70;99.90
39665;DHT22;26679;50.872;4.332;2023-08-07T06:24:55;13.80;99.90
39665;DHT22;26679;50.872;4.332;2023-08-07T06:27:21;13.90;99.90
39665;DHT22;26679;50.872;4.332;2023-08-07T06:29:46;14.00;99.90
39665;DHT22;26679;50.872;4.332;2023-08-07T06:32:12;14.20;99.90
39665;DHT22;26679;50.872;4.332;2023-08-07T06:34:37;14.30;99.90
39665;DHT22;26679;50.872;4.332;2023-08-07T06:37:03;14.40;99.90
39665;DHT22;26679;50.872;4.332;2023-08-07T06:39:29;14.40;99.90
39665;DHT22;26679;50.872;4.332;2023-08-07T06:42:01;14.40;99.90
39665;DHT22;26679;50.872;4.332;2023-08-07T06:44:53;14.70;99.90
39665;DHT22;26679;50.872;4.332;2023-08-07T06:47:18;15.00;99.90
39665;DHT22;26679;50.872;4.332;2023-08-07T06:49:45;15.10;99.90
39665;DHT22;26679;50.872;4.332;2023-08-07T06:52:11;15.30;99.90
39665;DHT22;26679;50.872;4.332;2023-08-07T06:54:45;15.30;99.90
39665;DHT22;26679;50.872;4.332;2023-08-07T07:00:22;15.30;99.90
39665;DHT22;26679;50.872;4.332;2023-08-07T07:02:49;15.30;99.90
39665;DHT22;26679;50.872;4.332;2023-08-07T07:05:15;15.30;99.90
39665;DHT22;26679;50.872;4.332;2023-08-07T07:07:40;15.30;99.90
39665;DHT22;26679;50.872;4.332;2023-08-07T07:10:06;15.40;99.90
39665;DHT22;26679;50.872;4.332;2023-08-07T07:12:31;15.40;99.90
39665;DHT22;26679;50.872;4.332;2023-08-07T07:14:57;15.50;99.90
39665;DHT22;26679;50.872;4.332;2023-08-07T07:17:22;15.60;99.90
39665;DHT22;26679;50.872;4.332;2023-08-07T07:19:48;15.60;99.90
39665;DHT22;26679;50.872;4.332;2023-08-07T07:22:13;15.70;99.90
39665;DHT22;26679;50.872;4.332;2023-08-07T07:24:43;15.70;99.90
39665;DHT22;26679;50.872;4.332;2023-08-07T07:27:12;15.80;99.90
39665;DHT22;26679;50.872;4.332;2023-08-07T07:29:37;15.90;99.90
39665;DHT22;26679;50.872;4.332;2023-08-07T07:32:03;15.90;99.90
39665;DHT22;26679;50.872;4.332;2023-08-07T07:34:29;16.00;99.90
39665;DHT22;26679;50.872;4.332;2023-08-07T07:36:54;16.00;99.90
39665;DHT22;26679;50.872;4.332;2023-08-07T07:39:20;16.00;99.90
39665;DHT22;26679;50.872;4.332;2023-08-07T07:41:46;16.10;99.90
39665;DHT22;26679;50.872;4.332;2023-08-07T07:44:11;16.20;99.90
39665;DHT22;26679;50.872;4.332;2023-08-07T07:46:38;16.40;99.90
39665;DHT22;26679;50.872;4.332;2023-08-07T07:49:07;16.50;99.90
39665;DHT22;26679;50.872;4.332;2023-08-07T07:51:36;16.50;99.90
39665;DHT22;26679;50.872;4.332;2023-08-07T07:54:02;16.60;99.90
39665;DHT22;26679;50.872;4.332;2023-08-07T07:56:28;16.70;99.90
39665;DHT22;26679;50.872;4.332;2023-08-07T07:58:53;16.70;99.90
39665;DHT22;26679;50.872;4.332;2023-08-07T08:01:19;16.60;99.90
39665;DHT22;26679;50.872;4.332;2023-08-07T08:03:44;16.80;99.90
39665;DHT22;26679;50.872;4.332;2023-08-07T08:06:13;16.60;99.90
39665;DHT22;26679;50.872;4.332;2023-08-07T08:08:38;16.70;99.90
39665;DHT22;26679;50.872;4.332;2023-08-07T08:11:04;16.90;99.90
39665;DHT22;26679;50.872;4.332;2023-08-07T08:13:30;17.10;99.90
39665;DHT22;26679;50.872;4.332;2023-08-07T08:15:55;17.10;99.90
39665;DHT22;26679;50.872;4.332;2023-08-07T08:18:21;17.10;99.90
39665;DHT22;26679;50.872;4.332;2023-08-07T08:20:46;17.20;99.90
39665;DHT22;26679;50.872;4.332;2023-08-07T08:23:12;17.30;99.90
39665;DHT22;26679;50.872;4.332;2023-08-07T08:25:37;17.50;99.90
39665;DHT22;26679;50.872;4.332;2023-08-07T08:28:03;17.60;99.90
39665;DHT22;26679;50.872;4.332;2023-08-07T08:30:29;17.70;99.90
39665;DHT22;26679;50.872;4.332;2023-08-07T08:32:54;17.60;99.90
39665;DHT22;26679;50.872;4.332;2023-08-07T08:35:20;17.70;99.90
39665;DHT22;26679;50.872;4.332;2023-08-07T08:40:15;17.90;99.90
39665;DHT22;26679;50.872;4.332;2023-08-07T08:42:43;18.00;99.90
39665;DHT22;26679;50.872;4.332;2023-08-07T08:45:09;17.80;99.90
39665;DHT22;26679;50.872;4.332;2023-08-07T08:47:36;17.90;99.90
39665;DHT22;26679;50.872;4.332;2023-08-07T08:50:10;18.10;99.90
39665;DHT22;26679;50.872;4.332;2023-08-07T08:52:37;18.30;99.90
39665;DHT22;26679;50.872;4.332;2023-08-07T08:55:03;18.30;99.90
39665;DHT22;26679;50.872;4.332;2023-08-07T08:57:30;18.40;99.90
39665;DHT22;26679;50.872;4.332;2023-08-07T08:59:59;18.40;99.90
39665;DHT22;26679;50.872;4.332;2023-08-07T09:02:25;18.40;99.90
39665;DHT22;26679;50.872;4.332;2023-08-07T09:04:50;18.50;99.90
39665;DHT22;26679;50.872;4.332;2023-08-07T09:07:16;18.40;99.90
39665;DHT22;26679;50.872;4.332;2023-08-07T09:09:43;18.40;99.90
39665;DHT22;26679;50.872;4.332;2023-08-07T09:12:12;18.40;99.90
39665;DHT22;26679;50.872;4.332;2023-08-07T09:14:39;18.40;99.90
39665;DHT22;26679;50.872;4.332;2023-08-07T09:17:06;18.30;99.90
39665;DHT22;26679;50.872;4.332;2023-08-07T09:19:33;18.30;99.90
39665;DHT22;26679;50.872;4.332;2023-08-07T09:21:58;18.60;99.90
39665;DHT22;26679;50.872;4.332;2023-08-07T09:24:24;19.50;99.90
39665;DHT22;26679;50.872;4.332;2023-08-07T09:26:53;19.90;99.90
39665;DHT22;26679;50.872;4.332;2023-08-07T09:29:18;21.10;99.90
39665;DHT22;26679;50.872;4.332;2023-08-07T09:31:44;22.20;99.90
39665;DHT22;26679;50.872;4.332;2023-08-07T09:34:13;22.40;98.30
39665;DHT22;26679;50.872;4.332;2023-08-07T09:36:41;21.30;99.00
39665;DHT22;26679;50.872;4.332;2023-08-07T09:39:07;20.60;99.90
39665;DHT22;26679;50.872;4.332;2023-08-07T09:41:33;20.10;99.90
39665;DHT22;26679;50.872;4.332;2023-08-07T09:44:05;19.80;99.90
39665;DHT22;26679;50.872;4.332;2023-08-07T09:46:32;19.60;99.90
39665;DHT22;26679;50.872;4.332;2023-08-07T09:49:02;20.50;99.90
39665;DHT22;26679;50.872;4.332;2023-08-07T09:51:33;20.80;99.40
39665;DHT22;26679;50.872;4.332;2023-08-07T09:54:05;20.20;99.90
39665;DHT22;26679;50.872;4.332;2023-08-07T09:56:31;20.10;99.90
39665;DHT22;26679;50.872;4.332;2023-08-07T09:58:56;21.10;99.90
39665;DHT22;26679;50.872;4.332;2023-08-07T10:01:23;22.10;98.80
39665;DHT22;26679;50.872;4.332;2023-08-07T10:03:50;23.30;97.30
39665;DHT22;26679;50.872;4.332;2023-08-07T10:06:17;23.60;95.80
39665;DHT22;26679;50.872;4.332;2023-08-07T10:08:44;23.70;95.70
39665;DHT22;26679;50.872;4.332;2023-08-07T10:11:10;23.60;95.10
39665;DHT22;26679;50.872;4.332;2023-08-07T10:13:36;23.70;94.80
39665;DHT22;26679;50.872;4.332;2023-08-07T10:16:02;23.30;94.70
39665;DHT22;26679;50.872;4.332;2023-08-07T10:18:28;23.60;95.40
39665;DHT22;26679;50.872;4.332;2023-08-07T10:20:53;24.10;94.30
39665;DHT22;26679;50.872;4.332;2023-08-07T10:23:19;24.50;93.50
39665;DHT22;26679;50.872;4.332;2023-08-07T10:25:46;23.60;93.80
39665;DHT22;26679;50.872;4.332;2023-08-07T10:28:15;23.30;94.40
39665;DHT22;26679;50.872;4.332;2023-08-07T10:30:42;22.70;94.80
39665;DHT22;26679;50.872;4.332;2023-08-07T10:33:08;22.60;95.30
39665;DHT22;26679;50.872;4.332;2023-08-07T10:35:34;22.60;95.30
39665;DHT22;26679;50.872;4.332;2023-08-07T10:38:08;22.00;95.60
39665;DHT22;26679;50.872;4.332;2023-08-07T10:40:47;21.90;96.10
39665;DHT22;26679;50.872;4.332;2023-08-07T10:43:20;23.20;95.30
39665;DHT22;26679;50.872;4.332;2023-08-07T10:45:50;23.30;94.10
39665;DHT22;26679;50.872;4.332;2023-08-07T10:48:18;23.70;94.80
39665;DHT22;26679;50.872;4.332;2023-08-07T10:50:51;23.60;94.20
39665;DHT22;26679;50.872;4.332;2023-08-07T10:53:35;23.00;94.50
39665;DHT22;26679;50.872;4.332;2023-08-07T10:56:04;22.50;94.90
39665;DHT22;26679;50.872;4.332;2023-08-07T10:58:33;22.10;95.40
39665;DHT22;26679;50.872;4.332;2023-08-07T11:06:21;21.90;97.30
39665;DHT22;26679;50.872;4.332;2023-08-07T11:08:48;23.40;96.20
39665;DHT22;26679;50.872;4.332;2023-08-07T11:11:13;24.90;94.50
39665;DHT22;26679;50.872;4.332;2023-08-07T11:13:39;25.70;92.70
39665;DHT22;26679;50.872;4.332;2023-08-07T11:16:05;25.10;92.40
39665;DHT22;26679;50.872;4.332;2023-08-07T11:18:30;25.70;91.60
39665;DHT22;26679;50.872;4.332;2023-08-07T11:20:56;25.60;91.40
39665;DHT22;26679;50.872;4.332;2023-08-07T11:23:25;24.70;92.50
39665;DHT22;26679;50.872;4.332;2023-08-07T11:25:54;24.50;92.20
39665;DHT22;26679;50.872;4.332;2023-08-07T11:28:32;23.80;92.80
39665;DHT22;26679;50.872;4.332;2023-08-07T11:31:04;23.10;93.40
39665;DHT22;26679;50.872;4.332;2023-08-07T11:33:35;22.60;94.20
39665;DHT22;26679;50.872;4.332;2023-08-07T11:36:09;22.90;94.30
39665;DHT22;26679;50.872;4.332;2023-08-07T11:38:41;23.30;94.20
39665;DHT22;26679;50.872;4.332;2023-08-07T11:41:31;23.10;94.50
39665;DHT22;26679;50.872;4.332;2023-08-07T11:44:03;22.90;94.80
39665;DHT22;26679;50.872;4.332;2023-08-07T11:49:59;22.20;95.70
39665;DHT22;26679;50.872;4.332;2023-08-07T11:52:36;22.00;95.80
39665;DHT22;26679;50.872;4.332;2023-08-07T11:55:08;21.60;96.10
39665;DHT22;26679;50.872;4.332;2023-08-07T11:57:38;22.60;96.40
39665;DHT22;26679;50.872;4.332;2023-08-07T12:00:08;24.40;94.70
39665;DHT22;26679;50.872;4.332;2023-08-07T12:02:43;26.00;93.50
39665;DHT22;26679;50.872;4.332;2023-08-07T12:05:10;26.90;91.00
39665;DHT22;26679;50.872;4.332;2023-08-07T12:07:39;25.30;91.80
39665;DHT22;26679;50.872;4.332;2023-08-07T12:10:08;24.30;93.00
39665;DHT22;26679;50.872;4.332;2023-08-07T12:12:37;23.80;93.50
39665;DHT22;26679;50.872;4.332;2023-08-07T12:15:07;23.70;93.70
39665;DHT22;26679;50.872;4.332;2023-08-07T12:17:36;24.00;93.70
39665;DHT22;26679;50.872;4.332;2023-08-07T12:20:05;24.00;93.40
39665;DHT22;26679;50.872;4.332;2023-08-07T12:22:33;24.30;93.90
39665;DHT22;26679;50.872;4.332;2023-08-07T12:24:58;23.40;93.80
39665;DHT22;26679;50.872;4.332;2023-08-07T12:27:24;23.10;94.30
39665;DHT22;26679;50.872;4.332;2023-08-07T12:29:49;23.00;94.40
39665;DHT22;26679;50.872;4.332;2023-08-07T12:32:15;22.90;94.60
39665;DHT22;26679;50.872;4.332;2023-08-07T12:34:41;24.00;94.30
39665;DHT22;26679;50.872;4.332;2023-08-07T12:37:06;25.00;93.50
39665;DHT22;26679;50.872;4.332;2023-08-07T12:39:32;25.70;92.70
39665;DHT22;26679;50.872;4.332;2023-08-07T12:41:57;25.20;92.30
39665;DHT22;26679;50.872;4.332;2023-08-07T12:44:23;24.40;93.00
39665;DHT22;26679;50.872;4.332;2023-08-07T12:46:49;24.50;93.40
39665;DHT22;26679;50.872;4.332;2023-08-07T12:49:14;24.50;93.30
39665;DHT22;26679;50.872;4.332;2023-08-07T12:51:40;24.50;93.50
39665;DHT22;26679;50.872;4.332;2023-08-07T12:54:06;24.20;93.70
39665;DHT22;26679;50.872;4.332;2023-08-07T12:56:31;23.70;93.80
39665;DHT22;26679;50.872;4.332;2023-08-07T12:58:57;23.40;94.10
39665;DHT22;26679;50.872;4.332;2023-08-07T13:01:22;22.90;94.30
39665;DHT22;26679;50.872;4.332;2023-08-07T13:03:48;22.70;94.80
39665;DHT22;26679;50.872;4.332;2023-08-07T13:06:13;22.80;95.40
39665;DHT22;26679;50.872;4.332;2023-08-07T13:08:40;23.40;94.60
39665;DHT22;26679;50.872;4.332;2023-08-07T13:11:06;23.60;94.70
39665;DHT22;26679;50.872;4.332;2023-08-07T13:13:31;24.20;94.10
39665;DHT22;26679;50.872;4.332;2023-08-07T13:15:57;24.00;93.90
39665;DHT22;26679;50.872;4.332;2023-08-07T13:18:24;25.20;93.30
39665;DHT22;26679;50.872;4.332;2023-08-07T13:20:49;26.10;92.30
39665;DHT22;26679;50.872;4.332;2023-08-07T13:23:15;27.40;91.60
39665;DHT22;26679;50.872;4.332;2023-08-07T13:25:40;28.10;91.00
39665;DHT22;26679;50.872;4.332;2023-08-07T13:28:06;28.90;90.50
39665;DHT22;26679;50.872;4.332;2023-08-07T13:30:32;28.00;90.10
39665;DHT22;26679;50.872;4.332;2023-08-07T13:32:58;26.60;90.60
39665;DHT22;26679;50.872;4.332;2023-08-07T13:35:23;25.60;91.10
39665;DHT22;26679;50.872;4.332;2023-08-07T13:37:49;24.90;91.60
39665;DHT22;26679;50.872;4.332;2023-08-07T13:40:14;25.40;92.20
39665;DHT22;26679;50.872;4.332;2023-08-07T13:42:40;27.20;91.20
39665;DHT22;26679;50.872;4.332;2023-08-07T13:45:06;28.00;90.90
39665;DHT22;26679;50.872;4.332;2023-08-07T13:47:32;28.80;90.60
39665;DHT22;26679;50.872;4.332;2023-08-07T13:49:58;29.10;87.70
39665;DHT22;26679;50.872;4.332;2023-08-07T13:52:23;28.00;89.50
39665;DHT22;26679;50.872;4.332;2023-08-07T13:54:50;27.80;89.70
39665;DHT22;26679;50.872;4.332;2023-08-07T13:57:15;28.40;90.10
39665;DHT22;26679;50.872;4.332;2023-08-07T13:59:41;29.00;88.10
39665;DHT22;26679;50.872;4.332;2023-08-07T14:02:07;29.40;87.60
39665;DHT22;26679;50.872;4.332;2023-08-07T14:04:32;29.90;87.20
39665;DHT22;26679;50.872;4.332;2023-08-07T14:06:58;30.10;86.60
39665;DHT22;26679;50.872;4.332;2023-08-07T14:09:24;30.00;85.70
39665;DHT22;26679;50.872;4.332;2023-08-07T14:11:50;29.70;85.90
39665;DHT22;26679;50.872;4.332;2023-08-07T14:14:15;29.20;86.00
39665;DHT22;26679;50.872;4.332;2023-08-07T14:16:41;29.10;86.40
39665;DHT22;26679;50.872;4.332;2023-08-07T14:19:08;29.30;86.10
39665;DHT22;26679;50.872;4.332;2023-08-07T14:21:34;29.30;86.40
39665;DHT22;26679;50.872;4.332;2023-08-07T14:24:01;29.00;86.50
39665;DHT22;26679;50.872;4.332;2023-08-07T14:26:27;27.70;87.50
39665;DHT22;26679;50.872;4.332;2023-08-07T14:28:52;27.50;89.00
39665;DHT22;26679;50.872;4.332;2023-08-07T14:31:18;27.30;88.30
39665;DHT22;26679;50.872;4.332;2023-08-07T14:33:43;28.10;87.40
39665;DHT22;26679;50.872;4.332;2023-08-07T14:36:09;28.80;86.00
39665;DHT22;26679;50.872;4.332;2023-08-07T14:38:35;28.90;86.60
39665;DHT22;26679;50.872;4.332;2023-08-07T14:41:00;28.70;85.50
39665;DHT22;26679;50.872;4.332;2023-08-07T14:43:28;28.40;86.20
39665;DHT22;26679;50.872;4.332;2023-08-07T14:45:54;28.70;86.30
39665;DHT22;26679;50.872;4.332;2023-08-07T14:48:20;29.20;86.30
39665;DHT22;26679;50.872;4.332;2023-08-07T14:50:46;29.30;84.60
39665;DHT22;26679;50.872;4.332;2023-08-07T14:53:11;28.80;85.00
39665;DHT22;26679;50.872;4.332;2023-08-07T14:55:39;29.00;83.80
39665;DHT22;26679;50.872;4.332;2023-08-07T14:58:04;28.70;84.60
39665;DHT22;26679;50.872;4.332;2023-08-07T15:00:30;28.70;84.20
39665;DHT22;26679;50.872;4.332;2023-08-07T15:02:58;29.10;84.10
39665;DHT22;26679;50.872;4.332;2023-08-07T15:05:24;29.60;84.60
39665;DHT22;26679;50.872;4.332;2023-08-07T15:07:49;29.60;83.80
39665;DHT22;26679;50.872;4.332;2023-08-07T15:10:15;29.10;83.30
39665;DHT22;26679;50.872;4.332;2023-08-07T15:12:40;29.20;84.00
39665;DHT22;26679;50.872;4.332;2023-08-07T15:15:06;28.90;83.60
39665;DHT22;26679;50.872;4.332;2023-08-07T15:17:32;28.60;85.70
39665;DHT22;26679;50.872;4.332;2023-08-07T15:19:57;29.30;85.20
39665;DHT22;26679;50.872;4.332;2023-08-07T15:22:23;29.00;84.20
39665;DHT22;26679;50.872;4.332;2023-08-07T15:24:48;29.00;84.10
39665;DHT22;26679;50.872;4.332;2023-08-07T15:27:15;29.20;84.70
39665;DHT22;26679;50.872;4.332;2023-08-07T15:29:40;29.30;85.30
39665;DHT22;26679;50.872;4.332;2023-08-07T15:32:09;28.50;85.20
39665;DHT22;26679;50.872;4.332;2023-08-07T15:34:35;28.80;86.30
39665;DHT22;26679;50.872;4.332;2023-08-07T15:37:00;28.30;86.30
39665;DHT22;26679;50.872;4.332;2023-08-07T15:39:26;28.60;85.30
39665;DHT22;26679;50.872;4.332;2023-08-07T15:41:51;27.60;85.80
39665;DHT22;26679;50.872;4.332;2023-08-07T15:44:17;26.90;86.90
39665;DHT22;26679;50.872;4.332;2023-08-07T15:46:42;26.90;87.80